createdAt,value
2019-05-19T00:00:28.161Z,6.07
2019-05-19T00:03:32.953Z,5.90
2019-05-19T00:06:37.744Z,6.07
2019-05-19T00:09:42.540Z,6.33
2019-05-19T00:12:47.221Z,6.33
2019-05-19T00:15:51.898Z,6.23
2019-05-19T00:18:56.555Z,5.97
2019-05-19T00:22:01.200Z,7.13
2019-05-19T00:25:06.614Z,6.30
2019-05-19T00:28:11.432Z,6.70
2019-05-19T00:31:16.091Z,7.50
2019-05-19T00:34:20.727Z,6.60
2019-05-19T00:37:25.417Z,7.20
2019-05-19T00:40:30.077Z,6.80
2019-05-19T00:43:34.799Z,6.30
2019-05-19T00:46:39.655Z,6.43
2019-05-19T00:49:44.370Z,7.20
2019-05-19T00:52:48.992Z,6.63
2019-05-19T00:55:54.389Z,7.10
2019-05-19T00:58:59.930Z,6.43
2019-05-19T01:02:05.038Z,6.13
2019-05-19T01:05:09.874Z,7.53
2019-05-19T01:08:14.573Z,6.63
2019-05-19T01:11:19.291Z,7.20
2019-05-19T01:14:43.265Z,6.30
2019-05-19T01:17:47.889Z,7.67
2019-05-19T01:20:53.028Z,6.63
2019-05-19T01:23:57.699Z,7.60
2019-05-19T01:27:02.537Z,7.10
2019-05-19T01:30:08.498Z,7.10
2019-05-19T01:33:13.313Z,7.10
2019-05-19T01:36:18.016Z,7.30
2019-05-19T01:39:22.923Z,7.40
2019-05-19T01:42:27.605Z,7.60
2019-05-19T01:45:32.397Z,7.50
2019-05-19T01:48:37.054Z,7.67
2019-05-19T01:51:41.765Z,8.30
2019-05-19T01:54:47.063Z,7.40
2019-05-19T01:57:51.805Z,7.50
2019-05-19T02:00:56.438Z,8.23
2019-05-19T02:04:01.069Z,7.50
2019-05-19T02:07:05.710Z,7.40
2019-05-19T02:10:10.793Z,6.53
2019-05-19T02:13:15.432Z,6.70
2019-05-19T02:16:20.154Z,7.93
2019-05-19T02:19:24.833Z,7.40
2019-05-19T02:22:29.551Z,8.10
2019-05-19T02:25:34.189Z,7.67
2019-05-19T02:28:38.824Z,7.20
2019-05-19T02:31:43.865Z,8.23
2019-05-19T02:34:48.616Z,7.57
2019-05-19T02:37:53.307Z,7.70
2019-05-19T02:40:58.501Z,7.70
2019-05-19T02:44:04.944Z,7.03
2019-05-19T02:47:12.716Z,8.27
2019-05-19T02:50:18.219Z,8.03
2019-05-19T02:53:24.387Z,7.77
2019-05-19T02:56:30.690Z,7.53
2019-05-19T02:59:36.266Z,7.43
2019-05-19T03:02:40.899Z,8.03
2019-05-19T03:05:45.546Z,8.30
2019-05-19T03:08:50.168Z,7.80
2019-05-19T03:11:54.879Z,8.30
2019-05-19T03:14:59.532Z,8.90
2019-05-19T03:18:04.249Z,8.37
2019-05-19T03:21:11.676Z,8.93
2019-05-19T03:24:15.450Z,10.20
2019-05-19T03:27:20.179Z,9.70
2019-05-19T03:30:50.031Z,7.70
2019-05-19T03:33:54.691Z,7.70
2019-05-19T03:36:59.550Z,9.17
2019-05-19T03:40:06.498Z,8.30
2019-05-19T03:43:11.138Z,9.43
2019-05-19T03:46:15.869Z,8.67
2019-05-19T03:49:21.504Z,9.03
2019-05-19T03:52:26.122Z,9.47
2019-05-19T03:55:30.934Z,9.63
2019-05-19T03:58:35.582Z,9.13
2019-05-19T04:01:40.238Z,9.90
2019-05-19T04:04:44.942Z,8.90
2019-05-19T04:07:49.634Z,9.30
2019-05-19T04:10:54.476Z,9.93
2019-05-19T04:13:59.201Z,9.37
2019-05-19T04:17:04.020Z,10.63
2019-05-19T04:20:09.023Z,10.07
2019-05-19T04:23:13.893Z,10.73
2019-05-19T04:26:18.624Z,10.40
2019-05-19T04:29:23.375Z,10.43
2019-05-19T04:32:28.022Z,11.40
2019-05-19T04:35:32.826Z,10.47
2019-05-19T04:38:37.549Z,10.53
2019-05-19T04:41:42.276Z,11.43
2019-05-19T04:44:46.993Z,11.40
2019-05-19T04:47:51.639Z,12.17
2019-05-19T04:50:56.278Z,11.83
2019-05-19T04:54:00.917Z,11.87
2019-05-19T04:57:05.644Z,11.70
2019-05-19T05:00:10.533Z,12.63
2019-05-19T05:03:15.186Z,11.97
2019-05-19T05:06:19.902Z,13.33
2019-05-19T05:09:25.905Z,13.77
2019-05-19T05:12:30.563Z,11.57
2019-05-19T05:15:35.362Z,11.80
2019-05-19T05:18:40.016Z,11.87
2019-05-19T05:21:44.685Z,11.60
2019-05-19T05:24:49.390Z,12.57
2019-05-19T05:27:54.134Z,12.40
2019-05-19T05:30:58.867Z,13.03
2019-05-19T05:34:03.586Z,12.90
2019-05-19T05:37:08.378Z,13.23
2019-05-19T05:40:13.205Z,13.07
2019-05-19T05:43:17.988Z,12.57
2019-05-19T05:46:22.801Z,13.77
2019-05-19T05:49:27.866Z,15.17
2019-05-19T05:52:38.667Z,14.67
2019-05-19T05:55:39.089Z,14.37
2019-05-19T05:58:43.805Z,16.60
2019-05-19T06:01:50.080Z,15.10
2019-05-19T06:04:54.754Z,15.30
2019-05-19T06:07:59.397Z,16.10
2019-05-19T06:11:04.187Z,15.70
2019-05-19T06:14:08.951Z,16.40
2019-05-19T06:17:13.732Z,17.03
2019-05-19T06:20:18.548Z,19.53
2019-05-19T06:23:23.467Z,20.80
2019-05-19T06:26:28.173Z,21.20
2019-05-19T06:29:33.206Z,22.00
2019-05-19T06:32:42.608Z,20.53
2019-05-19T06:35:47.386Z,22.50
2019-05-19T06:38:52.403Z,20.23
2019-05-19T06:41:57.262Z,19.83
2019-05-19T06:45:02.051Z,22.20
2019-05-19T06:48:06.934Z,20.97
2019-05-19T06:51:11.952Z,22.27
2019-05-19T06:54:16.814Z,22.20
2019-05-19T06:57:21.633Z,22.10
2019-05-19T07:00:26.450Z,21.67
2019-05-19T07:03:31.364Z,21.73
2019-05-19T07:06:36.035Z,21.10
2019-05-19T07:09:40.818Z,22.20
2019-05-19T07:12:45.972Z,22.37
2019-05-19T07:15:50.860Z,20.93
2019-05-19T07:18:55.655Z,22.90
2019-05-19T07:22:01.952Z,22.23
2019-05-19T07:25:07.471Z,23.27
2019-05-19T07:28:12.210Z,22.30
2019-05-19T07:31:16.918Z,21.80
2019-05-19T07:34:21.762Z,21.00
2019-05-19T07:37:26.404Z,20.47
2019-05-19T07:40:31.387Z,20.30
2019-05-19T07:43:36.184Z,19.37
2019-05-19T07:46:40.972Z,19.67
2019-05-19T07:49:45.729Z,20.20
2019-05-19T07:52:50.517Z,19.03
2019-05-19T07:55:55.178Z,18.27
2019-05-19T07:59:02.576Z,20.57
2019-05-19T08:02:07.558Z,20.40
2019-05-19T08:05:12.443Z,18.87
2019-05-19T08:08:17.419Z,18.40
2019-05-19T08:11:22.309Z,17.63
2019-05-19T08:14:27.054Z,17.27
2019-05-19T08:17:31.894Z,17.90
2019-05-19T08:20:36.606Z,17.10
2019-05-19T08:23:41.785Z,16.80
2019-05-19T08:26:46.924Z,18.60
2019-05-19T08:29:52.094Z,16.03
2019-05-19T08:32:57.418Z,16.90
2019-05-19T08:36:02.545Z,18.33
2019-05-19T08:39:07.675Z,17.20
2019-05-19T08:42:12.687Z,19.07
2019-05-19T08:45:17.994Z,16.77
2019-05-19T08:48:22.993Z,15.50
2019-05-19T08:51:28.278Z,14.53
2019-05-19T08:54:33.286Z,16.20
2019-05-19T08:57:38.476Z,15.23
2019-05-19T09:00:43.421Z,14.53
2019-05-19T09:03:48.811Z,16.53
2019-05-19T09:06:53.755Z,14.30
2019-05-19T09:09:58.868Z,12.80
2019-05-19T09:13:04.027Z,13.57
2019-05-19T09:16:09.137Z,14.60
2019-05-19T09:19:25.876Z,13.47
2019-05-19T09:22:30.823Z,13.10
2019-05-19T09:25:36.276Z,13.37
2019-05-19T09:28:41.361Z,11.60
2019-05-19T09:31:46.902Z,11.80
2019-05-19T09:34:51.874Z,10.70
2019-05-19T09:37:57.351Z,10.50
2019-05-19T09:41:02.302Z,10.30
2019-05-19T09:44:08.942Z,9.70
2019-05-19T09:47:13.918Z,9.20
2019-05-19T09:50:19.242Z,9.50
2019-05-19T09:53:24.269Z,10.30
2019-05-19T09:56:29.615Z,10.63
2019-05-19T09:59:34.831Z,12.10
2019-05-19T10:02:39.997Z,11.13
2019-05-19T10:05:45.136Z,10.70
2019-05-19T10:08:56.726Z,10.37
2019-05-19T10:12:04.138Z,11.60
2019-05-19T10:15:11.033Z,9.43
2019-05-19T10:18:16.415Z,10.47
2019-05-19T10:21:21.441Z,10.63
2019-05-19T10:24:26.703Z,11.80
2019-05-19T10:27:34.243Z,10.37
2019-05-19T10:30:39.494Z,10.03
2019-05-19T10:33:44.553Z,10.40
2019-05-19T10:36:49.652Z,11.77
2019-05-19T10:39:54.634Z,12.20
2019-05-19T10:42:59.710Z,11.27
2019-05-19T10:46:05.574Z,10.83
2019-05-19T10:49:10.591Z,11.17
2019-05-19T10:52:17.462Z,10.73
2019-05-19T10:55:35.445Z,11.90
2019-05-19T10:58:29.178Z,11.37
2019-05-19T11:01:34.217Z,10.23
2019-05-19T11:04:39.405Z,9.47
2019-05-19T11:07:44.345Z,10.33
2019-05-19T11:10:49.583Z,11.40
2019-05-19T11:13:54.943Z,10.90
2019-05-19T11:17:00.033Z,11.83
2019-05-19T11:20:05.646Z,11.80
2019-05-19T11:23:11.115Z,9.23
2019-05-19T11:26:16.326Z,9.90
2019-05-19T11:29:21.583Z,11.40
2019-05-19T11:32:26.765Z,10.57
2019-05-19T11:35:31.831Z,10.10
2019-05-19T11:38:36.961Z,10.17
2019-05-19T11:41:42.198Z,9.70
2019-05-19T11:44:47.171Z,8.30
2019-05-19T11:47:52.243Z,8.70
2019-05-19T11:50:57.299Z,10.23
2019-05-19T11:54:02.374Z,10.57
2019-05-19T11:57:07.442Z,13.33
2019-05-19T12:00:12.689Z,11.70
2019-05-19T12:03:17.970Z,10.60
2019-05-19T12:06:38.236Z,10.40
2019-05-19T12:09:29.780Z,10.30
2019-05-19T12:12:34.890Z,10.43
2019-05-19T12:15:40.134Z,10.63
2019-05-19T12:18:45.329Z,11.17
2019-05-19T12:21:50.431Z,11.50
2019-05-19T12:24:55.545Z,10.97
2019-05-19T12:28:01.821Z,11.20
2019-05-19T12:31:06.951Z,10.93
2019-05-19T12:34:12.107Z,11.40
2019-05-19T12:37:17.293Z,10.90
2019-05-19T12:40:22.872Z,11.97
2019-05-19T12:43:29.610Z,10.60
2019-05-19T12:46:34.580Z,10.40
2019-05-19T12:49:40.029Z,10.53
2019-05-19T12:52:45.100Z,9.07
2019-05-19T12:55:51.962Z,10.00
2019-05-19T12:58:57.062Z,9.37
2019-05-19T13:02:02.037Z,9.30
2019-05-19T13:05:07.197Z,9.10
2019-05-19T13:08:12.420Z,9.60
2019-05-19T13:11:17.637Z,10.00
2019-05-19T13:14:22.738Z,9.80
2019-05-19T13:17:28.202Z,10.50
2019-05-19T13:20:33.317Z,10.13
2019-05-19T13:23:38.556Z,10.07
2019-05-19T13:26:55.555Z,9.23
2019-05-19T13:29:50.559Z,9.37
2019-05-19T13:32:55.506Z,9.30
2019-05-19T13:36:02.592Z,8.93
2019-05-19T13:39:07.919Z,9.13
2019-05-19T13:42:16.394Z,8.30
2019-05-19T13:45:21.963Z,9.50
2019-05-19T13:48:27.175Z,7.80
2019-05-19T13:51:32.375Z,7.97
2019-05-19T13:54:37.422Z,8.00
2019-05-19T13:57:42.561Z,9.23
2019-05-19T14:00:47.715Z,6.40
2019-05-19T14:03:52.771Z,8.17
2019-05-19T14:06:57.825Z,8.50
2019-05-19T14:10:03.071Z,7.93
2019-05-19T14:13:08.160Z,8.43
2019-05-19T14:16:14.803Z,7.60
2019-05-19T14:19:19.774Z,10.20
2019-05-19T14:22:26.306Z,8.50
2019-05-19T14:25:31.334Z,7.07
2019-05-19T14:28:37.202Z,8.30
2019-05-19T14:31:42.146Z,7.37
2019-05-19T14:34:48.227Z,7.40
2019-05-19T14:37:52.812Z,7.20
2019-05-19T14:40:57.870Z,7.07
2019-05-19T14:44:03.994Z,6.90
2019-05-19T14:47:09.243Z,6.50
2019-05-19T14:50:14.776Z,6.90
2019-05-19T14:53:19.971Z,7.50
2019-05-19T14:56:25.189Z,7.10
2019-05-19T14:59:30.337Z,7.93
2019-05-19T15:02:35.575Z,7.90
2019-05-19T15:05:40.729Z,6.40
2019-05-19T15:08:45.887Z,6.63
2019-05-19T15:11:51.031Z,7.20
2019-05-19T15:14:56.178Z,7.60
2019-05-19T15:18:01.265Z,7.50
2019-05-19T15:21:06.637Z,9.00
2019-05-19T15:24:11.660Z,8.00
2019-05-19T15:27:17.039Z,7.87
2019-05-19T15:30:21.611Z,8.10
2019-05-19T15:33:37.372Z,7.50
2019-05-19T15:36:37.294Z,7.37
2019-05-19T15:39:42.702Z,7.87
2019-05-19T15:42:47.825Z,7.93
2019-05-19T15:45:53.057Z,8.07
2019-05-19T15:48:58.187Z,8.70
2019-05-19T15:52:05.195Z,8.87
2019-05-19T15:55:11.091Z,9.33
2019-05-19T15:58:17.129Z,9.67
2019-05-19T16:01:22.421Z,8.27
2019-05-19T16:04:27.566Z,9.27
2019-05-19T16:07:32.796Z,9.43
2019-05-19T16:10:37.833Z,9.10
2019-05-19T16:13:44.475Z,9.23
2019-05-19T16:16:49.582Z,8.57
2019-05-19T16:19:55.047Z,8.93
2019-05-19T16:23:01.389Z,8.97
2019-05-19T16:26:06.662Z,9.47
2019-05-19T16:29:11.814Z,9.30
2019-05-19T16:32:16.994Z,10.10
2019-05-19T16:35:22.039Z,11.00
2019-05-19T16:38:27.098Z,10.60
2019-05-19T16:41:32.258Z,8.73
2019-05-19T16:44:37.222Z,8.53
2019-05-19T16:47:42.455Z,10.20
2019-05-19T16:50:47.453Z,9.97
2019-05-19T16:53:55.359Z,10.00
2019-05-19T16:57:00.393Z,8.47
2019-05-19T17:00:05.618Z,8.77
2019-05-19T17:03:10.634Z,10.90
2019-05-19T17:06:16.394Z,9.30
2019-05-19T17:09:21.412Z,9.83
2019-05-19T17:12:26.871Z,9.67
2019-05-19T17:15:31.938Z,9.73
2019-05-19T17:18:38.504Z,9.80
2019-05-19T17:21:43.439Z,8.73
2019-05-19T17:24:48.757Z,9.70
2019-05-19T17:27:53.826Z,8.87
2019-05-19T17:30:58.895Z,9.40
2019-05-19T17:34:04.156Z,8.60
2019-05-19T17:37:09.314Z,9.27
2019-05-19T17:40:15.093Z,9.63
2019-05-19T17:43:20.174Z,9.37
2019-05-19T17:46:25.287Z,10.20
2019-05-19T17:49:30.260Z,9.33
2019-05-19T17:52:35.683Z,10.90
2019-05-19T17:55:41.375Z,9.93
2019-05-19T17:58:48.140Z,10.40
2019-05-19T18:01:53.164Z,9.83
2019-05-19T18:04:58.514Z,10.00
2019-05-19T18:08:04.577Z,11.07
2019-05-19T18:11:09.743Z,9.50
2019-05-19T18:14:15.021Z,9.53
2019-05-19T18:17:20.199Z,9.27
2019-05-19T18:20:25.200Z,8.90
2019-05-19T18:23:31.607Z,8.90
2019-05-19T18:26:36.919Z,11.23
2019-05-19T18:29:42.062Z,9.30
2019-05-19T18:32:47.245Z,10.23
2019-05-19T18:35:52.318Z,9.70
2019-05-19T18:38:57.492Z,9.50
2019-05-19T18:42:02.499Z,10.40
2019-05-19T18:45:08.774Z,10.33
2019-05-19T18:48:35.227Z,10.70
2019-05-19T18:51:40.287Z,9.77
2019-05-19T18:54:46.757Z,10.23
2019-05-19T18:57:52.030Z,8.83
2019-05-19T19:00:59.652Z,10.33
2019-05-19T19:04:04.782Z,11.53
2019-05-19T19:07:09.923Z,11.20
2019-05-19T19:10:15.062Z,11.40
2019-05-19T19:13:20.182Z,11.20
2019-05-19T19:16:25.266Z,11.93
2019-05-19T19:19:30.321Z,11.93
2019-05-19T19:22:35.399Z,11.80
2019-05-19T19:25:40.683Z,12.53
2019-05-19T19:28:45.661Z,12.73
2019-05-19T19:31:51.184Z,12.30
2019-05-19T19:34:56.292Z,12.77
2019-05-19T19:38:01.347Z,14.20
2019-05-19T19:41:06.451Z,11.40
2019-05-19T19:44:11.491Z,11.90
2019-05-19T19:47:16.622Z,12.83
2019-05-19T19:50:21.708Z,10.10
2019-05-19T19:53:26.815Z,9.70
2019-05-19T19:56:32.004Z,11.63
2019-05-19T19:59:36.997Z,9.73
2019-05-19T20:02:42.158Z,9.07
2019-05-19T20:05:47.322Z,10.10
2019-05-19T20:08:52.493Z,8.97
2019-05-19T20:11:57.475Z,8.47
2019-05-19T20:15:02.573Z,6.97
2019-05-19T20:18:07.781Z,8.10
2019-05-19T20:21:13.532Z,8.30
2019-05-19T20:24:18.510Z,7.47
2019-05-19T20:27:23.592Z,6.17
2019-05-19T20:30:35.574Z,5.80
2019-05-19T20:33:35.737Z,7.70
2019-05-19T20:36:40.713Z,7.97
2019-05-19T20:39:45.893Z,7.73
2019-05-19T20:42:50.914Z,7.70
2019-05-19T20:45:56.007Z,8.60
2019-05-19T20:49:01.057Z,8.20
2019-05-19T20:52:06.132Z,8.17
2019-05-19T20:55:11.305Z,7.47
2019-05-19T20:58:16.785Z,9.27
2019-05-19T21:01:22.788Z,10.00
2019-05-19T21:04:27.968Z,8.70
2019-05-19T21:07:33.360Z,9.40
2019-05-19T21:10:39.042Z,8.77
2019-05-19T21:13:44.188Z,9.17
2019-05-19T21:16:49.505Z,9.97
2019-05-19T21:19:54.864Z,11.50
2019-05-19T21:23:00.390Z,10.37
2019-05-19T21:26:05.654Z,10.93
2019-05-19T21:29:10.791Z,10.00
2019-05-19T21:32:15.791Z,8.70
2019-05-19T21:35:20.913Z,9.93
2019-05-19T21:38:25.913Z,9.77
2019-05-19T21:41:30.994Z,8.87
2019-05-19T21:44:36.171Z,9.27
2019-05-19T21:47:41.255Z,10.40
2019-05-19T21:50:46.225Z,10.20
2019-05-19T21:53:51.462Z,10.30
2019-05-19T21:56:58.098Z,9.47
2019-05-19T22:00:03.382Z,9.90
2019-05-19T22:03:08.718Z,10.30
2019-05-19T22:06:13.965Z,10.07
2019-05-19T22:09:18.930Z,10.00
2019-05-19T22:12:24.259Z,9.60
2019-05-19T22:15:29.458Z,9.13
2019-05-19T22:18:34.782Z,10.33
2019-05-19T22:21:39.753Z,10.53
2019-05-19T22:24:44.799Z,10.50
2019-05-19T22:27:49.848Z,10.90
2019-05-19T22:30:54.823Z,10.83
2019-05-19T22:33:59.788Z,10.23
2019-05-19T22:37:04.836Z,10.10
2019-05-19T22:40:10.899Z,10.83
2019-05-19T22:43:15.983Z,11.27
2019-05-19T22:46:21.013Z,10.63
2019-05-19T22:49:26.068Z,10.97
2019-05-19T22:52:31.013Z,11.43
2019-05-19T22:55:35.997Z,11.47
2019-05-19T22:58:41.633Z,11.70
2019-05-19T23:01:51.724Z,11.13
2019-05-19T23:04:53.699Z,11.53
2019-05-19T23:07:58.750Z,12.17
2019-05-19T23:11:03.867Z,12.70
2019-05-19T23:14:08.833Z,12.70
2019-05-19T23:17:13.946Z,12.50
2019-05-19T23:20:19.174Z,13.80
2019-05-19T23:23:24.334Z,13.37
2019-05-19T23:26:29.302Z,14.03
2019-05-19T23:29:34.266Z,12.30
2019-05-19T23:32:39.404Z,12.20
2019-05-19T23:35:44.424Z,13.30
2019-05-19T23:38:49.406Z,13.40
2019-05-19T23:41:54.429Z,12.50
2019-05-19T23:44:59.500Z,13.80
2019-05-19T23:48:04.518Z,15.00
2019-05-19T23:51:09.658Z,12.93
2019-05-19T23:54:14.715Z,14.73
2019-05-19T23:57:19.697Z,13.10
